createdAt,value
2018-11-06T00:02:48.320Z,27.83
2018-11-06T00:07:52.465Z,25.13
2018-11-06T00:12:55.840Z,24.25
2018-11-06T00:17:59.307Z,25.45
2018-11-06T00:23:03.369Z,28.42
2018-11-06T00:28:07.172Z,25.90
2018-11-06T00:33:13.957Z,27.73
2018-11-06T00:38:17.539Z,26.90
2018-11-06T00:43:21.711Z,25.77
2018-11-06T00:48:25.102Z,23.90
2018-11-06T00:53:28.448Z,25.50
2018-11-06T00:58:33.179Z,26.55
2018-11-06T01:03:42.078Z,27.60
2018-11-06T01:08:45.727Z,29.67
2018-11-06T01:13:49.107Z,29.63
2018-11-06T01:18:53.311Z,29.25
2018-11-06T01:23:56.622Z,26.80
2018-11-06T01:28:59.961Z,27.70
2018-11-06T01:34:03.281Z,27.75
2018-11-06T01:39:07.967Z,23.62
2018-11-06T01:44:11.237Z,23.55
2018-11-06T01:49:14.516Z,22.30
2018-11-06T01:54:21.912Z,24.00
2018-11-06T01:59:25.971Z,20.37
2018-11-06T02:04:29.267Z,20.72
2018-11-06T02:09:32.544Z,21.55
2018-11-06T02:14:35.821Z,22.58
2018-11-06T02:19:40.620Z,23.35
2018-11-06T02:24:43.936Z,20.53
2018-11-06T02:29:47.196Z,23.57
2018-11-06T02:34:50.464Z,20.52
2018-11-06T02:39:53.763Z,21.00
2018-11-06T02:44:57.138Z,20.68
2018-11-06T02:50:00.632Z,21.57
2018-11-06T02:55:05.651Z,19.00
2018-11-06T03:00:11.769Z,18.75
2018-11-06T03:05:15.281Z,18.60
2018-11-06T03:10:18.770Z,19.10
2018-11-06T03:15:22.115Z,18.75
2018-11-06T03:20:25.561Z,19.52
2018-11-06T03:25:29.539Z,23.00
2018-11-06T03:30:34.554Z,21.83
2018-11-06T03:35:37.952Z,19.60
2018-11-06T03:40:41.467Z,20.02
2018-11-06T03:45:45.236Z,18.10
2018-11-06T03:50:50.942Z,17.60
2018-11-06T03:55:55.282Z,16.87
2018-11-06T04:00:58.657Z,17.80
2018-11-06T04:06:02.159Z,17.05
2018-11-06T04:11:05.668Z,18.75
2018-11-06T04:16:09.195Z,17.55
2018-11-06T04:21:13.162Z,18.87
2018-11-06T04:26:16.636Z,18.60
2018-11-06T04:31:20.020Z,17.60
2018-11-06T04:36:23.349Z,18.40
2018-11-06T04:41:27.162Z,16.35
2018-11-06T04:46:30.556Z,18.10
2018-11-06T04:51:33.918Z,17.80
2018-11-06T04:56:38.137Z,18.77
2018-11-06T05:01:43.430Z,18.02
2018-11-06T05:06:48.672Z,17.30
2018-11-06T05:11:55.577Z,16.33
2018-11-06T05:17:00.515Z,16.50
2018-11-06T05:22:04.032Z,16.55
2018-11-06T05:27:09.131Z,16.00
2018-11-06T05:32:19.205Z,14.93
2018-11-06T05:37:22.737Z,16.10
2018-11-06T05:42:31.785Z,15.80
2018-11-06T05:47:35.551Z,16.90
2018-11-06T05:52:55.106Z,16.05
2018-11-06T05:57:58.585Z,16.10
2018-11-06T06:03:03.200Z,16.60
2018-11-06T06:08:07.868Z,15.97
2018-11-06T06:13:12.112Z,15.58
2018-11-06T06:18:21.868Z,16.70
2018-11-06T06:23:25.273Z,15.20
2018-11-06T06:28:28.837Z,17.33
2018-11-06T06:33:46.614Z,16.30
2018-11-06T06:49:47.413Z,17.13
2018-11-06T06:54:55.836Z,17.70
2018-11-06T06:59:59.281Z,16.67
2018-11-06T07:05:02.710Z,17.37
2018-11-06T07:10:08.266Z,16.23
2018-11-06T07:15:12.929Z,15.27
2018-11-06T07:20:19.850Z,16.25
2018-11-06T07:25:42.444Z,14.33
2018-11-06T07:31:03.210Z,15.23
2018-11-06T07:36:11.560Z,15.80
2018-11-06T07:41:17.730Z,15.78
2018-11-06T07:46:26.393Z,16.30
2018-11-06T07:51:35.174Z,14.93
2018-11-06T07:56:41.725Z,16.15
2018-11-06T08:01:46.367Z,16.35
2018-11-06T08:06:49.800Z,17.90
2018-11-06T08:11:53.232Z,17.27
2018-11-06T08:16:56.643Z,14.60
2018-11-06T08:21:59.998Z,15.13
2018-11-06T08:27:03.407Z,13.90
2018-11-06T08:32:07.216Z,13.93
2018-11-06T08:37:10.479Z,14.18
2018-11-06T08:42:14.152Z,12.53
2018-11-06T08:52:20.179Z,14.00
2018-11-06T09:03:09.029Z,14.85
2018-11-06T09:08:19.820Z,15.13
2018-11-06T09:13:23.884Z,15.53
2018-11-06T09:18:28.693Z,15.00
2018-11-06T09:23:32.269Z,15.15
2018-11-06T09:28:37.276Z,16.85
2018-11-06T09:33:41.236Z,14.80
2018-11-06T09:38:47.910Z,15.50
2018-11-06T09:43:51.493Z,14.80
2018-11-06T09:48:54.832Z,15.73
2018-11-06T09:53:58.474Z,16.70
2018-11-06T09:59:01.911Z,16.60
2018-11-06T10:04:05.739Z,17.50
2018-11-06T10:09:10.077Z,17.77
2018-11-06T10:14:13.479Z,17.73
2018-11-06T10:19:16.787Z,18.27
2018-11-06T10:24:20.181Z,17.20
2018-11-06T10:29:23.527Z,17.87
2018-11-06T10:34:26.896Z,18.40
2018-11-06T10:39:30.263Z,17.23
2018-11-06T10:44:33.655Z,18.23
2018-11-06T10:49:37.102Z,18.23
2018-11-06T10:54:40.544Z,17.70
2018-11-06T10:59:43.958Z,16.10
2018-11-06T11:10:15.318Z,18.43
2018-11-06T11:21:01.816Z,17.30
2018-11-06T11:26:05.283Z,18.20
2018-11-06T11:31:08.829Z,18.10
2018-11-06T11:36:12.238Z,17.48
2018-11-06T11:41:15.616Z,19.00
2018-11-06T11:46:18.961Z,17.80
2018-11-06T11:51:22.307Z,18.05
2018-11-06T11:56:25.691Z,18.10
2018-11-06T12:01:29.056Z,18.42
2018-11-06T12:06:32.612Z,17.98
2018-11-06T12:11:36.060Z,17.57
2018-11-06T12:16:39.734Z,16.45
2018-11-06T12:21:43.081Z,17.27
2018-11-06T12:26:46.523Z,15.90
2018-11-06T12:31:49.906Z,17.50
2018-11-06T12:36:53.525Z,17.20
2018-11-06T12:47:25.921Z,17.80
2018-11-06T12:52:33.345Z,18.17
2018-11-06T12:57:40.559Z,15.80
2018-11-06T13:02:43.998Z,17.97
2018-11-06T13:07:47.507Z,16.10
2018-11-06T13:12:50.909Z,17.35
2018-11-06T13:17:54.861Z,17.60
2018-11-06T13:23:00.452Z,16.07
2018-11-06T13:28:03.875Z,15.37
2018-11-06T13:33:07.259Z,16.77
2018-11-06T13:38:11.311Z,16.47
2018-11-06T13:43:18.656Z,14.93
2018-11-06T13:48:21.983Z,17.05
2018-11-06T13:53:25.685Z,15.80
2018-11-06T13:58:34.797Z,16.40
2018-11-06T14:03:40.538Z,17.25
2018-11-06T14:08:44.664Z,16.60
2018-11-06T14:13:48.050Z,16.82
2018-11-06T14:18:51.740Z,16.30
2018-11-06T15:15:36.041Z,15.70
2018-11-06T15:20:39.416Z,14.80
2018-11-06T15:25:42.963Z,14.55
2018-11-06T15:30:46.457Z,15.27
2018-11-06T15:35:50.237Z,14.80
2018-11-06T15:40:53.828Z,13.00
2018-11-06T15:45:57.178Z,12.58
2018-11-06T15:51:00.614Z,12.60
2018-11-06T15:56:04.066Z,14.35
2018-11-06T16:01:08.318Z,16.25
2018-11-06T16:06:11.745Z,16.40
2018-11-06T16:11:15.233Z,16.17
2018-11-06T16:16:18.725Z,18.30
2018-11-06T16:21:22.385Z,15.40
2018-11-06T16:26:26.085Z,16.05
2018-11-06T16:31:29.518Z,14.00
2018-11-06T16:36:32.791Z,16.85
2018-11-06T16:41:36.233Z,16.20
2018-11-06T16:46:39.617Z,16.60
2018-11-06T16:51:43.033Z,17.37
2018-11-06T16:56:46.623Z,18.32
2018-11-06T17:01:50.257Z,21.62
2018-11-06T17:06:54.184Z,18.50
2018-11-06T17:12:13.956Z,21.97
2018-11-06T17:17:17.588Z,20.60
2018-11-06T17:22:21.161Z,22.23
2018-11-06T17:27:24.723Z,22.87
2018-11-06T17:32:28.780Z,18.60
2018-11-06T17:37:34.417Z,20.92
2018-11-06T17:42:38.137Z,20.52
2018-11-06T17:47:42.149Z,21.40
2018-11-06T17:52:45.889Z,22.20
2018-11-06T17:57:49.500Z,22.10
2018-11-06T18:02:53.146Z,19.90
2018-11-06T18:07:56.680Z,22.40
2018-11-06T18:13:00.334Z,23.00
2018-11-06T18:18:03.805Z,23.75
2018-11-06T18:23:07.290Z,23.22
2018-11-06T18:28:10.624Z,24.47
2018-11-06T18:33:14.117Z,23.57
2018-11-06T18:38:17.631Z,24.20
2018-11-06T18:43:21.109Z,23.80
2018-11-06T18:48:24.506Z,22.30
2018-11-06T18:53:28.112Z,26.55
2018-11-06T19:27:02.011Z,25.97
2018-11-06T19:32:07.177Z,22.15
2018-11-06T19:37:10.808Z,22.77
2018-11-06T19:42:14.259Z,23.32
2018-11-06T19:47:22.474Z,23.05
2018-11-06T19:52:37.616Z,23.60
2018-11-06T19:57:44.961Z,21.77
2018-11-06T20:02:51.526Z,19.57
2018-11-06T20:07:56.881Z,24.80
2018-11-06T20:13:02.608Z,23.85
2018-11-06T20:18:10.694Z,23.87
2018-11-06T20:23:15.152Z,25.90
2018-11-06T20:28:19.651Z,26.95
2018-11-06T20:33:24.344Z,25.50
2018-11-06T20:38:40.516Z,25.30
2018-11-06T20:49:10.430Z,27.87
2018-11-06T20:54:14.124Z,23.80
2018-11-06T20:59:17.532Z,24.60
2018-11-06T21:04:23.509Z,28.27
2018-11-06T21:09:31.369Z,29.20
2018-11-06T21:14:34.893Z,26.52
2018-11-06T21:19:38.274Z,30.27
2018-11-06T21:24:41.605Z,26.20
2018-11-06T21:29:45.183Z,27.85
2018-11-06T21:34:48.554Z,26.33
2018-11-06T21:39:52.666Z,27.75
2018-11-06T21:44:56.260Z,24.10
2018-11-06T21:50:00.261Z,27.32
2018-11-06T21:55:03.711Z,27.27
2018-11-06T22:00:09.521Z,26.80
2018-11-06T22:05:13.960Z,27.98
2018-11-06T22:10:18.845Z,27.02
2018-11-06T22:15:22.209Z,26.45
2018-11-06T22:20:25.599Z,25.72
2018-11-06T22:25:29.142Z,27.00
2018-11-06T22:30:32.573Z,30.65
2018-11-06T22:35:36.003Z,24.27
2018-11-06T22:40:39.445Z,30.20
2018-11-06T22:45:42.825Z,30.02
2018-11-06T22:50:46.090Z,30.70
2018-11-06T22:55:49.476Z,27.77
2018-11-06T23:00:59.240Z,25.80
2018-11-06T23:06:02.669Z,30.10
2018-11-06T23:11:06.083Z,28.83
2018-11-06T23:16:10.181Z,29.42
2018-11-06T23:21:13.624Z,28.20
2018-11-06T23:26:16.948Z,31.10
2018-11-06T23:31:20.758Z,30.80
2018-11-06T23:36:24.108Z,26.65
2018-11-06T23:41:27.593Z,25.17
2018-11-06T23:46:31.032Z,25.82
2018-11-06T23:51:34.373Z,27.48
2018-11-06T23:56:37.785Z,27.40
